Cegled, Hungary
Current Conditions -  °F | °C
As of 2:15 AM on Friday 28 Nov 2014 (Local Time) from LHKE Reporting Station
Haze Haze  
Wind Chill: 24°   Ceiling: 500
Heat Index: 32°   Visibility: 1.2mi
Dew Point: 32°   Wind: 9mph
Humidity: 100%   Direction: 80°E
Pressure: 30.09"   Gusts: NA
Location:  47.18°N, 19.78°E
Report Text: LHKE 280015Z 08008KT 2000 BR BKN005 OVC023 M00/M00 Q1019 TEMPO -RA -RASN RMK YLO
Loading
Personal Weather Stations






























Interactive Weather Map New forecast layout! Learn more

10-Day Weather Forecast

Advertisements
Track Severe Weather on mobile